CheckWX is a tool to help pilots better visualize weather data.  It is not intended as a substitute for an official pre-flight weather briefing.

03:15:41 UTC

KAAO METAR
Colonel James Jabara Airport
Wichita, Kansas, USA
Current

22 mins ago

KAAO 180254Z AUTO 15009KT 10SM CLR 26/19 A2994 RMK AO2 SLP123 T02560194 53006
Observed
Sep-18 @ 02:54 UTC
Wind
  • 150° at 9 KTS
Visibility
10 SM
Flight Rules
VFR
Cloud Levels
  • Clear skies
Temperature
26°C / 79°F
Dewpoint
19°C / 66°F
Humidity
65%
Altimeter
29.94" Hg
Pressure
1013.92 hPa
Previous

1 hour ago

KAAO 180154Z AUTO 16009KT 10SM CLR 27/19 A2993 RMK AO2 SLP122 T02670194
Observed
Sep-18 @ 01:54 UTC
Wind
  • 160° at 9 KTS
Visibility
10 SM
Flight Rules
VFR
Cloud Levels
  • Clear skies
Temperature
27°C / 81°F
Dewpoint
19°C / 66°F
Heat Index
28°C / 83°F
Humidity
62%
Altimeter
29.93" Hg
Pressure
1013.52 hPa
Previous

2 hours ago

KAAO 180054Z AUTO 15011KT 10SM CLR 28/19 A2992 RMK AO2 SLP117 T02780194
Observed
Sep-18 @ 00:54 UTC
Wind
  • 150° at 11 KTS
Visibility
10 SM
Flight Rules
VFR
Cloud Levels
  • Clear skies
Temperature
28°C / 82°F
Dewpoint
19°C / 66°F
Heat Index
29°C / 84°F
Humidity
58%
Altimeter
29.92" Hg
Pressure
1013.22 hPa